Time;durP1;ratioP1;P1;durP2;ratioP2;P2;SDS_P1;SDS_P2;PMS_P1;PMS_P2;Temp;Humidity;BMP_temperature;BMP_pressure;BME280_temperature;BME280_humidity;BME280_pressure;Samples;Min_cycle;Max_cycle;Signal;HPM_P1;HPM_P2
2022/12/31 00:00:56;;;;;;;1.17;0.38;;;;;;;10.07;100.00;99915.09;5048145;28;20123;-76
2022/12/31 00:03:21;;;;;;;0.85;0.15;;;;;;;10.17;100.00;99914.09;5051361;28;20037;-76
2022/12/31 00:05:47;;;;;;;0.52;0.20;;;;;;;10.25;100.00;99911.34;5051670;28;20178;-76
2022/12/31 00:08:12;;;;;;;0.45;0.10;;;;;;;10.31;100.00;99908.63;5051831;28;20037;-76
2022/12/31 00:10:40;;;;;;;0.40;0.10;;;;;;;10.44;100.00;99926.00;5046986;28;20039;-76
2022/12/31 00:13:11;;;;;;;0.80;0.10;;;;;;;10.61;100.00;99924.88;5051986;28;20048;-76
2022/12/31 00:15:40;;;;;;;0.38;0.10;;;;;;;10.68;100.00;99931.81;5051391;28;20528;-76
2022/12/31 00:18:06;;;;;;;0.45;0.10;;;;;;;10.71;100.00;99937.03;5050167;28;20048;-76
2022/12/31 00:20:31;;;;;;;0.40;0.10;;;;;;;10.80;100.00;99936.03;5051714;28;20037;-76
2022/12/31 00:22:57;;;;;;;0.22;0.08;;;;;;;10.88;100.00;99940.28;5050339;28;20124;-76
2022/12/31 00:25:22;;;;;;;0.38;0.13;;;;;;;10.93;100.00;99948.97;5051305;28;20037;-76
2022/12/31 00:27:47;;;;;;;0.85;0.10;;;;;;;10.95;100.00;99944.56;5051564;28;20044;-75
2022/12/31 00:30:13;;;;;;;0.22;0.00;;;;;;;11.01;100.00;99943.56;5050269;28;20399;-76
2022/12/31 00:32:38;;;;;;;0.30;0.15;;;;;;;11.04;100.00;99946.16;5051441;28;20035;-75
2022/12/31 00:35:04;;;;;;;1.38;0.13;;;;;;;11.08;100.00;99965.44;5051262;28;20484;-76
2022/12/31 00:37:29;;;;;;;1.23;0.20;;;;;;;11.13;100.00;99958.31;5049809;28;20044;-75
2022/12/31 00:39:54;;;;;;;0.15;0.10;;;;;;;11.23;100.00;99956.41;5051335;28;20086;-76
2022/12/31 00:42:20;;;;;;;0.20;0.08;;;;;;;11.27;100.00;99956.31;5051472;28;20100;-76
2022/12/31 00:44:45;;;;;;;1.02;0.30;;;;;;;11.36;100.00;99966.69;5049731;28;20036;-75
2022/12/31 00:47:10;;;;;;;0.43;0.10;;;;;;;11.41;99.96;99982.47;5048225;28;20045;-76
2022/12/31 00:49:36;;;;;;;0.63;0.22;;;;;;;11.45;100.00;99980.63;5049917;28;20040;-76
2022/12/31 00:52:01;;;;;;;0.52;0.20;;;;;;;11.47;99.90;99990.28;5051279;28;20093;-76
2022/12/31 00:54:26;;;;;;;0.10;0.05;;;;;;;11.51;99.36;99988.47;5051051;28;20112;-76
2022/12/31 00:56:52;;;;;;;0.20;0.10;;;;;;;11.57;99.34;100009.50;5050824;28;20082;-76
2022/12/31 00:59:17;;;;;;;0.20;0.10;;;;;;;11.59;99.36;100012.97;5049836;28;20048;-76
2022/12/31 01:01:42;;;;;;;0.60;0.20;;;;;;;11.60;99.34;100006.78;5051077;28;20112;-76
2022/12/31 01:04:11;;;;;;;0.13;0.10;;;;;;;11.69;98.92;100013.69;5050916;28;20040;-75
2022/12/31 01:06:37;;;;;;;0.10;0.08;;;;;;;11.71;99.23;100022.44;5050780;28;20511;-76
2022/12/31 01:09:03;;;;;;;0.05;0.05;;;;;;;11.76;99.11;100026.78;5051085;28;20029;-76
2022/12/31 01:11:29;;;;;;;0.70;0.10;;;;;;;11.79;98.94;100034.63;5050981;28;20033;-76
2022/12/31 01:13:56;;;;;;;0.17;0.08;;;;;;;11.81;98.92;100030.16;5050808;28;20051;-76
2022/12/31 01:16:25;;;;;;;0.50;0.10;;;;;;;11.87;98.53;100036.28;5051588;28;20061;-76
2022/12/31 01:18:51;;;;;;;0.50;0.10;;;;;;;11.91;98.38;100022.97;5055055;28;20112;-76
2022/12/31 01:21:17;;;;;;;0.65;0.10;;;;;;;11.91;98.27;100032.69;5054951;28;20501;-76
2022/12/31 01:23:43;;;;;;;0.98;0.20;;;;;;;12.00;98.41;100037.81;5050971;28;20395;-76
2022/12/31 01:26:11;;;;;;;0.40;0.22;;;;;;;11.97;98.92;100035.19;5054664;28;20037;-76
2022/12/31 01:28:37;;;;;;;0.35;0.10;;;;;;;11.98;98.72;100043.09;5054873;28;20036;-76
2022/12/31 01:31:08;;;;;;;0.57;0.20;;;;;;;12.01;98.87;100042.19;5054655;28;20033;-75
2022/12/31 01:33:34;;;;;;;0.30;0.10;;;;;;;12.01;98.97;100043.03;5054676;28;20096;-76
2022/12/31 01:36:04;;;;;;;0.15;0.10;;;;;;;11.99;99.13;100038.69;5054432;28;20044;-76
2022/12/31 01:38:30;;;;;;;0.10;0.00;;;;;;;11.98;99.28;100037.81;5054698;28;20087;-76
2022/12/31 01:40:55;;;;;;;0.90;0.10;;;;;;;11.98;99.24;100048.41;5054553;28;20037;-76
2022/12/31 01:43:20;;;;;;;0.63;0.08;;;;;;;11.96;99.58;100034.31;5054475;28;20111;-76
2022/12/31 01:45:49;;;;;;;1.48;0.30;;;;;;;11.99;99.43;100028.97;5054211;28;20056;-76
2022/12/31 01:48:21;;;;;;;0.30;0.10;;;;;;;12.00;99.51;100020.16;5053278;28;20033;-76
2022/12/31 01:50:47;;;;;;;;;;;;;;;12.01;99.28;100034.25;5054849;28;20041;-76
2022/12/31 01:53:13;;;;;;;0.17;0.10;;;;;;;11.97;99.63;100030.81;5054052;28;20359;-76
2022/12/31 01:55:41;;;;;;;0.32;0.20;;;;;;;11.92;100.00;100040.59;5054043;28;20064;-76
2022/12/31 01:58:11;;;;;;;0.30;0.10;;;;;;;11.93;100.00;100030.88;5054259;28;20095;-76
2022/12/31 02:00:37;;;;;;;0.40;0.20;;;;;;;11.95;100.00;100039.66;5054206;28;20040;-75
2022/12/31 02:03:04;;;;;;;0.00;0.00;;;;;;;11.96;100.00;100036.09;5054242;28;20423;-76
2022/12/31 02:05:40;;;;;;;0.20;0.10;;;;;;;12.00;100.00;100043.09;5051646;28;20075;-76
2022/12/31 02:08:06;;;;;;;0.70;0.10;;;;;;;12.01;100.00;100042.19;5042608;28;20065;-76
2022/12/31 02:10:32;;;;;;;0.75;0.10;;;;;;;12.04;100.00;100047.41;5052770;28;20068;-76
2022/12/31 02:12:58;;;;;;;0.30;0.20;;;;;;;12.07;100.00;100052.63;5054032;28;20037;-76
2022/12/31 02:15:37;;;;;;;0.28;0.05;;;;;;;12.08;100.00;100038.50;5053787;28;20045;-75
2022/12/31 02:18:18;;;;;;;0.10;0.10;;;;;;;12.09;100.00;100036.75;5052467;28;20044;-76
2022/12/31 02:21:04;;;;;;;0.20;0.10;;;;;;;12.05;100.00;100030.63;5066262;28;20036;-76
2022/12/31 02:23:52;;;;;;;0.85;0.20;;;;;;;12.04;100.00;100027.09;5065725;28;20303;-76
2022/12/31 02:26:38;;;;;;;0.43;0.20;;;;;;;12.05;100.00;100025.31;5051049;28;20037;-76
2022/12/31 02:29:49;;;;;;;0.50;0.17;;;;;;;11.95;100.00;100031.72;5053430;28;20020;-76
2022/12/31 02:32:30;;;;;;;0.45;0.17;;;;;;;11.97;100.00;100041.38;5052638;28;20418;-76
2022/12/31 02:35:03;;;;;;;0.10;0.10;;;;;;;11.98;100.00;100035.19;5050229;28;20033;-76
2022/12/31 02:37:31;;;;;;;0.30;0.20;;;;;;;11.99;100.00;100034.25;5053502;28;20453;-76
2022/12/31 02:39:57;;;;;;;1.00;0.13;;;;;;;11.98;100.00;100027.25;5049876;28;20506;-76
2022/12/31 02:42:23;;;;;;;0.45;0.10;;;;;;;11.95;100.00;100015.88;5053563;28;20033;-76
2022/12/31 02:44:48;;;;;;;0.20;0.10;;;;;;;11.98;100.00;100008.72;5053564;28;20473;-75
2022/12/31 02:47:25;;;;;;;0.20;0.13;;;;;;;12.00;100.00;100014.00;5049283;28;20495;-76
2022/12/31 02:50:00;;;;;;;0.47;0.20;;;;;;;11.94;100.00;100022.91;5046274;28;20044;-76
2022/12/31 02:52:25;;;;;;;0.32;0.05;;;;;;;11.95;100.00;100037.03;5053455;28;20047;-76
2022/12/31 02:55:01;;;;;;;0.38;0.17;;;;;;;12.03;100.00;100029.81;5053321;28;20045;-76
2022/12/31 02:57:38;;;;;;;0.30;0.10;;;;;;;12.02;100.00;100022.75;5049927;28;20037;-76
2022/12/31 03:03:11;;;;;;;0.52;0.20;;;;;;;12.04;100.00;100031.53;5001001;28;20420;-76
2022/12/31 03:05:41;;;;;;;0.28;0.10;;;;;;;12.03;100.00;100043.03;5001814;28;20045;-75
2022/12/31 03:08:06;;;;;;;0.17;0.10;;;;;;;12.10;100.00;100031.41;5024315;28;20044;-76
2022/12/31 03:10:32;;;;;;;0.50;0.20;;;;;;;12.11;100.00;100032.28;5053048;28;20036;-76
2022/12/31 03:12:57;;;;;;;0.32;0.10;;;;;;;12.07;100.00;100034.09;5052973;28;20047;-76
2022/12/31 03:15:28;;;;;;;0.47;0.20;;;;;;;12.08;100.00;100033.22;5052735;28;20021;-76
2022/12/31 03:17:59;;;;;;;0.15;0.00;;;;;;;12.07;100.00;100034.09;5051209;28;20402;-76
2022/12/31 03:23:38;;;;;;;0.10;0.10;;;;;;;12.18;100.00;100045.38;5042837;28;20048;-76
2022/12/31 03:26:11;;;;;;;0.20;0.00;;;;;;;12.20;100.00;100061.19;5048997;28;20415;-76
2022/12/31 03:28:39;;;;;;;0.10;0.03;;;;;;;12.27;100.00;100055.75;5052623;28;20086;-76
2022/12/31 03:31:05;;;;;;;0.10;0.10;;;;;;;12.27;100.00;100050.44;5052491;28;20036;-76
2022/12/31 03:33:33;;;;;;;0.55;0.10;;;;;;;12.36;100.00;100041.44;5052614;28;20041;-76
2022/12/31 03:36:03;;;;;;;0.47;0.10;;;;;;;12.40;100.00;100044.91;5051915;28;20040;-76
2022/12/31 03:38:28;;;;;;;0.45;0.13;;;;;;;12.45;100.00;100037.75;5050212;28;20506;-76
2022/12/31 03:40:53;;;;;;;0.28;0.10;;;;;;;12.49;100.00;100028.81;5052383;28;20116;-75
2022/12/31 03:43:19;;;;;;;0.68;0.10;;;;;;;12.54;100.00;100019.00;5052330;28;20107;-75
2022/12/31 03:45:50;;;;;;;0.10;0.10;;;;;;;12.57;100.00;100004.81;5050833;28;20124;-76
2022/12/31 03:48:16;;;;;;;0.20;0.10;;;;;;;12.64;100.00;100004.66;5050934;28;20037;-76
2022/12/31 03:50:41;;;;;;;0.20;0.10;;;;;;;12.66;100.00;100009.94;5051883;28;20411;-76
2022/12/31 03:53:06;;;;;;;0.98;0.10;;;;;;;12.70;100.00;100006.28;5052313;28;20041;-76
2022/12/31 03:55:32;;;;;;;0.38;0.15;;;;;;;12.68;100.00;100003.69;5051844;28;20040;-76
2022/12/31 03:57:57;;;;;;;0.57;0.10;;;;;;;12.73;100.00;100006.19;5050416;28;20041;-76
2022/12/31 04:00:23;;;;;;;0.22;0.10;;;;;;;12.77;100.00;100007.03;5052057;28;20129;-76
2022/12/31 04:02:49;;;;;;;0.45;0.20;;;;;;;12.81;100.00;100009.56;5052107;28;20116;-76
2022/12/31 04:05:16;;;;;;;0.10;0.00;;;;;;;12.82;100.00;100005.13;5051924;28;20128;-76
2022/12/31 04:07:42;;;;;;;0.47;0.20;;;;;;;12.82;100.00;99999.84;5051510;28;20068;-76
2022/12/31 04:10:11;;;;;;;1.00;0.10;;;;;;;12.83;100.00;100009.53;5051901;28;20028;-76
2022/12/31 04:12:37;;;;;;;0.70;0.20;;;;;;;12.80;100.00;100001.66;5048122;28;20473;-76
2022/12/31 04:15:03;;;;;;;3.50;0.10;;;;;;;12.83;100.00;100004.22;5048010;28;20116;-76
2022/12/31 04:17:28;;;;;;;0.13;0.00;;;;;;;12.80;100.00;99999.88;5051097;28;20414;-76
2022/12/31 04:19:53;;;;;;;0.28;0.10;;;;;;;12.80;100.00;99996.34;5051720;28;20040;-76
2022/12/31 04:22:19;;;;;;;0.05;0.05;;;;;;;12.81;100.00;99996.34;5067728;22;20036;-75
2022/12/31 04:24:44;;;;;;;0.47;0.20;;;;;;;12.85;100.00;99994.47;5071623;28;20106;-75
2022/12/31 04:27:13;;;;;;;0.70;0.22;;;;;;;12.87;100.00;99997.97;5070682;28;20036;-76
2022/12/31 04:29:39;;;;;;;2.03;0.50;;;;;;;12.91;100.00;99996.97;5071487;28;20024;-75
2022/12/31 04:32:06;;;;;;;0.98;0.40;;;;;;;12.92;100.00;99993.41;5071376;28;20497;-74
2022/12/31 04:34:32;;;;;;;0.32;0.10;;;;;;;12.96;100.00;99994.22;5060343;28;20045;-76
2022/12/31 04:36:57;;;;;;;0.28;0.10;;;;;;;13.02;100.00;99987.00;5062653;28;20036;-76
2022/12/31 04:39:23;;;;;;;0.00;0.00;;;;;;;13.04;100.00;99982.50;5059522;28;20112;-75
2022/12/31 04:41:49;;;;;;;0.10;0.00;;;;;;;13.06;100.00;99967.44;5062512;28;20127;-74
2022/12/31 04:44:14;;;;;;;0.13;0.10;;;;;;;13.08;100.00;99978.88;5060758;28;20048;-76
2022/12/31 04:46:40;;;;;;;0.20;0.13;;;;;;;13.10;100.00;99979.72;5060881;28;20435;-76
2022/12/31 04:49:06;;;;;;;0.20;0.10;;;;;;;13.10;100.00;99977.06;5057546;28;20482;-76
2022/12/31 04:51:32;;;;;;;0.25;0.10;;;;;;;13.17;100.00;99972.47;5062548;28;20036;-76
2022/12/31 04:53:58;;;;;;;0.75;0.00;;;;;;;13.26;100.00;99969.63;5057163;28;20024;-75
2022/12/31 04:56:24;;;;;;;0.00;0.00;;;;;;;13.30;100.00;99965.97;5059550;28;20593;-76
2022/12/31 04:58:49;;;;;;;0.22;0.08;;;;;;;13.35;100.00;99963.22;5062530;28;20036;-75
2022/12/31 05:01:15;;;;;;;0.03;0.00;;;;;;;13.39;100.00;99964.88;5061244;28;20098;-76
2022/12/31 05:03:40;;;;;;;0.15;0.10;;;;;;;13.37;100.00;99967.56;5060186;28;20132;-76
2022/12/31 05:06:15;;;;;;;0.40;0.17;;;;;;;13.43;100.00;99957.69;5062227;28;20037;-76
2022/12/31 05:08:40;;;;;;;0.15;0.00;;;;;;;13.44;100.00;99968.28;5058194;28;20037;-76
2022/12/31 05:11:06;;;;;;;0.77;0.20;;;;;;;13.46;100.00;99966.44;5060942;28;20043;-76
2022/12/31 05:13:32;;;;;;;0.93;0.20;;;;;;;13.48;100.00;99975.22;5061525;28;20044;-75
2022/12/31 05:15:58;;;;;;;0.65;0.13;;;;;;;13.54;100.00;99963.56;5059398;28;20025;-76
2022/12/31 05:18:23;;;;;;;0.38;0.10;;;;;;;13.60;100.00;99968.72;5060439;28;20468;-76
2022/12/31 05:20:48;;;;;;;0.17;0.10;;;;;;;13.69;100.00;99967.59;5062311;28;20142;-76
2022/12/31 05:23:15;;;;;;;0.22;0.00;;;;;;;13.74;100.00;99973.63;5059986;28;20585;-76
2022/12/31 05:25:43;;;;;;;0.20;0.10;;;;;;;13.87;100.00;99953.81;5059559;28;20127;-76
2022/12/31 05:28:08;;;;;;;0.25;0.10;;;;;;;13.92;100.00;99953.69;5061549;28;20099;-75
2022/12/31 05:30:33;;;;;;;0.32;0.10;;;;;;;13.94;99.91;99954.50;5038021;28;20137;-75
2022/12/31 05:32:59;;;;;;;0.10;0.00;;;;;;;13.99;99.68;99955.22;5062332;28;20040;-76
2022/12/31 05:35:25;;;;;;;0.00;0.00;;;;;;;14.02;99.59;99963.97;5059357;28;20033;-76
2022/12/31 05:37:50;;;;;;;0.10;0.00;;;;;;;14.05;99.54;99964.81;5061931;28;20036;-76
2022/12/31 05:40:16;;;;;;;0.40;0.08;;;;;;;14.07;99.04;99969.16;5060661;28;20198;-76
2022/12/31 05:42:41;;;;;;;0.20;0.10;;;;;;;14.09;99.22;99967.31;5056272;28;20064;-76
2022/12/31 05:45:07;;;;;;;0.10;0.10;;;;;;;14.16;98.46;99974.19;5058084;28;20048;-76
2022/12/31 05:47:33;;;;;;;0.10;0.00;;;;;;;14.21;97.93;99971.41;5060749;28;20040;-76
2022/12/31 05:49:58;;;;;;;0.10;0.10;;;;;;;14.17;98.08;99962.66;5062060;28;20067;-76
2022/12/31 05:52:23;;;;;;;0.10;0.00;;;;;;;14.22;97.85;99967.81;5059689;28;20032;-76
2022/12/31 05:54:50;;;;;;;0.10;0.10;;;;;;;14.24;97.60;99966.00;5059384;28;20486;-75
2022/12/31 05:57:15;;;;;;;0.45;0.10;;;;;;;14.20;97.72;99970.53;5060740;28;20060;-76
2022/12/31 05:59:41;;;;;;;0.20;0.15;;;;;;;14.21;97.76;99974.91;5055414;28;20036;-76
2022/12/31 06:02:06;;;;;;;0.00;0.00;;;;;;;14.20;97.78;99972.28;5063824;28;20043;-75
2022/12/31 06:04:32;;;;;;;0.10;0.10;;;;;;;14.19;97.73;99973.22;5062675;28;20025;-76
2022/12/31 06:06:57;;;;;;;0.50;0.05;;;;;;;14.12;97.85;99971.66;5064757;28;20044;-76
2022/12/31 06:09:22;;;;;;;0.45;0.10;;;;;;;14.16;97.92;99962.69;5064318;28;20044;-75
2022/12/31 06:11:48;;;;;;;0.00;0.00;;;;;;;14.15;98.02;99966.28;5062401;28;20037;-76
2022/12/31 06:14:14;;;;;;;0.00;0.00;;;;;;;14.17;97.85;99975.03;5064633;28;20094;-76
2022/12/31 06:16:39;;;;;;;1.10;0.00;;;;;;;14.23;97.26;99974.88;5062326;28;20047;-76
2022/12/31 06:19:05;;;;;;;0.40;0.15;;;;;;;14.23;97.10;99962.47;5061697;28;20029;-75
2022/12/31 06:21:30;;;;;;;0.73;0.00;;;;;;;14.24;97.25;99989.88;5065116;28;20040;-76
2022/12/31 06:23:55;;;;;;;0.08;0.03;;;;;;;14.23;97.11;99986.34;5063074;28;20044;-76
2022/12/31 06:26:24;;;;;;;0.10;0.00;;;;;;;14.26;96.84;99985.41;5063297;28;20500;-75
2022/12/31 06:28:49;;;;;;;0.63;0.17;;;;;;;14.26;96.70;99966.81;5062381;28;20113;-76
2022/12/31 06:31:15;;;;;;;0.10;0.03;;;;;;;14.26;96.55;99969.47;5065171;28;20115;-76
2022/12/31 06:33:40;;;;;;;0.13;0.10;;;;;;;14.25;96.62;99965.06;5061936;28;20120;-76
2022/12/31 06:36:10;;;;;;;0.40;0.10;;;;;;;14.24;96.59;99960.69;5064531;28;20487;-75
2022/12/31 06:38:38;;;;;;;0.10;0.00;;;;;;;14.22;96.76;99941.28;5063348;28;20054;-76
2022/12/31 06:41:04;;;;;;;0.10;0.05;;;;;;;14.21;96.68;99955.47;5064309;28;20033;-76
2022/12/31 06:43:29;;;;;;;0.17;0.10;;;;;;;14.20;96.95;99965.22;5061729;28;20086;-76
2022/12/31 06:45:55;;;;;;;0.50;0.20;;;;;;;14.27;96.45;99970.34;5057632;28;20041;-76
2022/12/31 06:48:20;;;;;;;1.65;0.10;;;;;;;14.35;96.06;99961.22;5064339;28;20032;-76
2022/12/31 06:50:45;;;;;;;0.52;0.22;;;;;;;14.37;95.85;99967.34;5048021;28;20086;-76
2022/12/31 06:53:11;;;;;;;0.10;0.10;;;;;;;14.40;95.30;99969.91;5063250;28;20033;-76
2022/12/31 06:55:36;;;;;;;0.28;0.10;;;;;;;14.46;95.04;99993.63;5063557;28;20033;-76
2022/12/31 06:58:03;;;;;;;0.00;0.00;;;;;;;14.56;94.29;99988.91;5061735;28;20118;-75
2022/12/31 07:00:29;;;;;;;0.90;0.22;;;;;;;14.65;93.78;99975.38;5044476;28;20037;-76
2022/12/31 07:03:25;;;;;;;0.43;0.30;;;;;;;14.70;93.48;99980.53;5064293;28;20036;-76
2022/12/31 07:06:09;;;;;;;0.68;0.10;;;;;;;14.77;92.83;99992.69;5060118;28;20060;-75
2022/12/31 07:08:59;;;;;;;0.57;0.28;;;;;;;14.83;93.02;99986.34;5059341;28;20043;-76
2022/12/31 07:11:34;;;;;;;0.35;0.20;;;;;;;14.84;92.51;99982.75;5059050;28;20032;-76
2022/12/31 07:14:21;;;;;;;0.63;0.10;;;;;;;14.92;92.14;99991.34;5060669;28;20037;-76
2022/12/31 07:16:46;;;;;;;1.17;0.20;;;;;;;14.95;91.72;99991.22;5061726;28;20102;-75
2022/12/31 07:19:39;;;;;;;1.55;0.30;;;;;;;14.92;91.25;99985.16;5063919;28;20040;-76
2022/12/31 07:22:13;;;;;;;0.95;0.10;;;;;;;14.88;91.58;99976.41;5063985;28;20445;-76
2022/12/31 07:24:39;;;;;;;0.73;0.10;;;;;;;14.90;91.79;99975.41;5062461;28;20482;-76
2022/12/31 07:27:18;;;;;;;0.10;0.10;;;;;;;14.88;91.80;99974.63;5062073;28;20169;-75
2022/12/31 07:29:59;;;;;;;0.90;0.20;;;;;;;14.88;91.90;99974.63;5057728;28;20479;-76
2022/12/31 07:32:58;;;;;;;0.32;0.00;;;;;;;14.88;91.93;99979.06;5064204;28;20044;-75
2022/12/31 07:35:58;;;;;;;0.10;0.03;;;;;;;14.87;92.10;99982.63;5063249;28;20024;-76
2022/12/31 07:39:01;;;;;;;1.45;0.15;;;;;;;14.85;91.97;99979.16;5061183;28;20036;-76
2022/12/31 07:41:45;;;;;;;0.88;0.30;;;;;;;14.87;92.03;99994.13;5057399;28;20479;-76
2022/12/31 07:44:41;;;;;;;0.70;0.10;;;;;;;14.87;91.81;99988.81;5060509;28;20033;-76
2022/12/31 07:47:20;;;;;;;0.47;0.10;;;;;;;15.01;91.28;99979.53;5057282;28;20040;-76
2022/12/31 07:49:46;;;;;;;0.17;0.10;;;;;;;15.05;91.01;99987.34;5057846;28;20029;-76
2022/12/31 07:52:11;;;;;;;0.32;0.03;;;;;;;15.08;91.19;100010.28;5063683;28;20040;-76
2022/12/31 07:54:37;;;;;;;0.40;0.20;;;;;;;15.06;90.83;100015.69;5060561;28;20061;-75
2022/12/31 07:57:03;;;;;;;0.20;0.00;;;;;;;15.03;90.78;100005.13;5063840;28;20037;-76
2022/12/31 07:59:47;;;;;;;0.45;0.10;;;;;;;15.06;90.88;100006.81;5062112;28;20032;-76
2022/12/31 08:02:44;;;;;;;0.00;0.00;;;;;;;15.15;90.38;100033.09;5056357;28;20033;-76
2022/12/31 08:05:45;;;;;;;0.20;0.00;;;;;;;15.24;90.15;100030.13;5060186;28;20068;-76
2022/12/31 08:08:27;;;;;;;0.38;0.10;;;;;;;15.39;89.65;100043.84;5060133;28;20411;-76
2022/12/31 08:11:20;;;;;;;3.00;0.13;;;;;;;15.47;89.01;100037.34;5060650;28;20121;-75
2022/12/31 08:13:45;;;;;;;;;;;;;;;15.53;88.32;100031.78;5058840;28;20037;-75
2022/12/31 08:16:12;;;;;;;0.32;0.05;;;;;;;15.55;88.11;100018.47;5063188;28;20066;-76
2022/12/31 08:18:37;;;;;;;0.65;0.20;;;;;;;15.54;88.33;100022.91;5059040;28;20040;-75
2022/12/31 08:21:30;;;;;;;0.05;0.00;;;;;;;15.65;88.21;100046.47;5062327;28;20037;-76
2022/12/31 08:24:20;;;;;;;0.77;0.20;;;;;;;15.66;88.56;100026.91;5058599;28;20047;-75
2022/12/31 08:26:51;;;;;;;0.47;0.20;;;;;;;15.64;88.56;100025.22;5058829;28;20051;-76
2022/12/31 08:29:33;;;;;;;0.20;0.10;;;;;;;15.54;88.77;100030.03;5061413;28;20036;-76
2022/12/31 08:32:04;;;;;;;0.43;0.22;;;;;;;15.52;88.93;100024.75;5059533;28;20033;-76
2022/12/31 08:35:11;;;;;;;0.32;0.20;;;;;;;15.45;89.18;100025.00;5059957;28;20098;-76
2022/12/31 08:37:46;;;;;;;2.13;0.40;;;;;;;15.46;89.81;100045.38;5058803;28;20049;-76
2022/12/31 08:40:35;;;;;;;0.75;0.40;;;;;;;15.41;89.98;100032.22;5058177;28;20049;-76
2022/12/31 08:43:06;;;;;;;0.90;0.20;;;;;;;15.38;90.41;100016.38;5059599;28;20503;-77
2022/12/31 08:45:37;;;;;;;0.90;0.30;;;;;;;15.43;90.58;100021.53;5061546;28;20033;-77
2022/12/31 08:48:17;;;;;;;0.50;0.25;;;;;;;15.44;90.13;100023.28;5056477;28;20112;-75
2022/12/31 08:50:42;;;;;;;1.27;0.20;;;;;;;15.52;90.04;100034.53;5058001;28;20045;-75
2022/12/31 08:53:08;;;;;;;1.33;0.30;;;;;;;15.56;89.81;100031.72;5060971;28;20411;-76
2022/12/31 08:55:34;;;;;;;1.15;0.20;;;;;;;15.57;89.25;100017.47;5061630;28;20051;-76
2022/12/31 08:58:38;;;;;;;1.60;0.32;;;;;;;15.61;89.51;100012.91;5059648;28;20025;-76
2022/12/31 09:01:06;;;;;;;0.73;0.28;;;;;;;15.62;89.64;100020.00;5057926;28;20124;-77
2022/12/31 09:03:47;;;;;;;1.27;0.40;;;;;;;15.64;89.53;100026.13;5060410;28;20074;-76
2022/12/31 09:06:30;;;;;;;2.03;0.30;;;;;;;15.71;89.28;100025.00;5057375;28;20047;-76
2022/12/31 09:09:07;;;;;;;0.57;0.22;;;;;;;15.74;88.99;100024.88;5055264;28;20033;-76
2022/12/31 09:11:53;;;;;;;0.73;0.20;;;;;;;15.82;88.92;100043.25;5061701;28;20032;-76
2022/12/31 09:14:46;;;;;;;0.90;0.25;;;;;;;15.85;88.54;100048.47;5039890;28;20037;-75
2022/12/31 09:17:42;;;;;;;2.22;0.30;;;;;;;15.92;87.71;100035.81;5057176;28;20024;-76
2022/12/31 09:20:30;;;;;;;0.95;0.38;;;;;;;15.98;87.59;100040.91;5062046;28;20476;-76
2022/12/31 09:22:57;;;;;;;1.02;0.25;;;;;;;15.97;87.29;100040.03;5059273;28;20099;-76
2022/12/31 09:25:24;;;;;;;0.50;0.20;;;;;;;16.00;86.69;100047.03;5055281;28;20398;-76
2022/12/31 09:28:10;;;;;;;1.15;0.30;;;;;;;16.11;87.41;100036.88;5061503;28;20040;-75
2022/12/31 09:31:08;;;;;;;0.30;0.13;;;;;;;16.19;86.55;100042.78;5058619;28;20037;-75
2022/12/31 09:33:50;;;;;;;2.53;1.05;;;;;;;16.21;86.40;100043.59;5058027;28;20065;-77
2022/12/31 09:36:30;;;;;;;0.77;0.25;;;;;;;16.29;85.84;100053.09;5056636;28;20143;-76
2022/12/31 09:39:02;;;;;;;1.88;0.50;;;;;;;16.21;86.34;100051.56;5065445;28;20383;-76
2022/12/31 09:41:44;;;;;;;1.77;0.30;;;;;;;16.05;86.64;100039.75;5060807;28;20051;-77
2022/12/31 09:44:12;;;;;;;0.60;0.30;;;;;;;16.16;86.61;100044.69;5062976;28;20586;-76
2022/12/31 09:47:22;;;;;;;1.20;0.30;;;;;;;16.15;86.28;100038.50;5065209;28;20037;-75
2022/12/31 09:50:17;;;;;;;1.60;0.20;;;;;;;16.18;86.40;100056.16;5066964;28;20032;-77
2022/12/31 09:53:08;;;;;;;0.70;0.35;;;;;;;16.23;85.79;100054.19;5060429;28;20036;-75
2022/12/31 09:55:49;;;;;;;1.08;0.40;;;;;;;16.30;85.63;100052.19;5060341;28;20490;-76
2022/12/31 09:58:43;;;;;;;0.45;0.20;;;;;;;16.36;85.01;100062.59;5061786;28;20028;-75
2022/12/31 10:01:34;;;;;;;0.73;0.30;;;;;;;16.42;85.08;100057.03;5059235;28;20036;-75
2022/12/31 10:04:32;;;;;;;1.60;0.30;;;;;;;16.45;84.53;100048.91;5059623;28;20036;-77
2022/12/31 10:07:17;;;;;;;1.30;0.30;;;;;;;16.45;84.71;100048.91;5060169;28;20082;-77
2022/12/31 10:10:04;;;;;;;0.68;0.17;;;;;;;16.54;84.21;100053.91;5060482;28;20401;-75
2022/12/31 10:12:53;;;;;;;0.40;0.15;;;;;;;16.55;84.21;100062.75;5059720;28;20487;-77
2022/12/31 10:15:53;;;;;;;1.45;0.30;;;;;;;16.66;83.68;100052.56;5059784;28;20040;-76
2022/12/31 10:18:53;;;;;;;0.85;0.30;;;;;;;16.72;83.60;100046.16;5060607;28;20143;-77
2022/12/31 10:21:35;;;;;;;1.13;0.30;;;;;;;16.75;83.31;100056.69;5033293;28;20061;-77
2022/12/31 10:24:21;;;;;;;1.45;0.40;;;;;;;16.72;83.34;100043.47;5079121;22;20041;-76
2022/12/31 10:27:05;;;;;;;0.68;0.28;;;;;;;16.71;83.43;100057.72;5071606;28;20036;-75
2022/12/31 10:29:30;;;;;;;0.98;0.40;;;;;;;16.74;83.54;100055.81;5073344;28;20043;-75
2022/12/31 10:32:30;;;;;;;1.42;0.68;;;;;;;16.73;83.39;100054.06;5073792;28;20040;-77
2022/12/31 10:35:13;;;;;;;0.73;0.30;;;;;;;16.71;83.60;100050.56;5065271;28;20170;-76
2022/12/31 10:37:47;;;;;;;;;;;;;;;16.75;83.29;100052.22;5064698;28;20029;-77
2022/12/31 10:41:03;;;;;;;1.58;0.28;;;;;;;16.71;83.20;100060.38;5059722;28;19917;-76
2022/12/31 10:43:55;;;;;;;0.95;0.28;;;;;;;16.70;83.38;100053.31;5031484;28;20051;-76
2022/12/31 10:47:02;;;;;;;1.85;0.32;;;;;;;16.68;83.64;100049.84;5059142;28;20521;-76
2022/12/31 10:49:55;;;;;;;1.08;0.17;;;;;;;16.80;83.73;100065.41;5060558;28;20491;-76
2022/12/31 10:52:37;;;;;;;0.98;0.30;;;;;;;16.80;83.29;100044.94;5064831;28;20062;-76
2022/12/31 10:55:36;;;;;;;0.50;0.20;;;;;;;16.84;83.01;100041.19;5064203;28;20036;-76
2022/12/31 10:58:16;;;;;;;1.10;0.30;;;;;;;16.81;82.98;100051.13;5064731;28;20032;-75
2022/12/31 11:01:06;;;;;;;1.23;0.30;;;;;;;16.82;83.22;100052.84;5059758;28;20033;-77
2022/12/31 11:03:37;;;;;;;0.70;0.20;;;;;;;16.74;83.45;100054.91;5062914;28;20037;-76
2022/12/31 11:06:47;;;;;;;1.13;0.40;;;;;;;16.80;82.97;100060.06;5057767;28;20072;-76
2022/12/31 11:09:39;;;;;;;1.08;0.30;;;;;;;16.69;84.08;100062.22;5062126;28;20032;-76
2022/12/31 11:12:27;;;;;;;0.77;0.22;;;;;;;16.74;83.65;100061.13;5062450;28;20160;-76
2022/12/31 11:15:00;;;;;;;0.75;0.30;;;;;;;16.68;83.39;100065.81;5040404;28;20047;-76
2022/12/31 11:17:47;;;;;;;0.98;0.38;;;;;;;16.74;83.70;100076.22;5060538;28;20055;-76
2022/12/31 11:20:22;;;;;;;0.77;0.40;;;;;;;16.68;83.49;100080.00;5059965;28;20504;-76
2022/12/31 11:23:21;;;;;;;0.63;0.20;;;;;;;16.85;83.30;100074.94;5062496;28;20097;-77
2022/12/31 11:26:14;;;;;;;0.80;0.40;;;;;;;16.90;82.70;100077.44;5064097;28;20028;-76
2022/12/31 11:29:01;;;;;;;1.08;0.38;;;;;;;16.97;81.97;100068.25;5056876;28;20060;-76
2022/12/31 11:31:51;;;;;;;0.63;0.28;;;;;;;17.04;81.89;100064.41;5057579;28;20040;-76
2022/12/31 11:34:29;;;;;;;2.42;0.43;;;;;;;17.07;81.45;100060.75;5057385;28;20128;-76
2022/12/31 11:37:28;;;;;;;0.90;0.30;;;;;;;17.01;81.17;100040.53;5061446;28;20036;-76
2022/12/31 11:40:18;;;;;;;0.98;0.30;;;;;;;17.03;81.35;100046.69;5060695;28;20029;-76
2022/12/31 11:43:03;;;;;;;0.52;0.20;;;;;;;17.06;81.40;100056.34;5057068;28;20072;-76
2022/12/31 11:45:54;;;;;;;1.15;0.25;;;;;;;17.02;81.16;100050.25;5061720;28;20123;-76
2022/12/31 11:48:53;;;;;;;1.02;0.20;;;;;;;17.03;81.53;100068.00;5063777;28;20025;-76
2022/12/31 11:51:35;;;;;;;0.93;0.40;;;;;;;17.11;81.02;100053.47;5062841;28;20028;-77
2022/12/31 11:54:19;;;;;;;;;;;;;;;17.13;80.45;100060.50;5057241;28;20072;-76
2022/12/31 11:56:54;;;;;;;1.67;0.30;;;;;;;17.13;80.50;100049.81;5060243;28;19936;-76
2022/12/31 11:59:19;;;;;;;1.23;0.20;;;;;;;17.20;80.28;100053.97;5057133;28;20078;-76
2022/12/31 12:01:59;;;;;;;1.50;0.30;;;;;;;17.29;79.63;100050.06;5059236;28;20037;-76
2022/12/31 12:04:24;;;;;;;2.15;0.50;;;;;;;17.31;79.82;100057.06;5057298;28;20075;-76